Lahaina, HI

11:14 AM HST on April 21, 2015 (GMT -1000)
Lanai City | | Change Station
CLOSE
Current Station
Airport
Location: Lanai City,
Elevation: 1309 ft
Nearby Weather Stations

Elev 1309 ft 20.79 °N, 156.95 °W | Updated 16 minutes ago

Overcast
Overcast
74 °F
Feels Like 74 °F
N
13
Wind Variable Wind from NE

Today
High -- | Low -- °F
--% Chance of Precip.
Yesterday
High -- | Low -- °F
Precip. -- in
6:03 AM 6:47 PM
Waxing Crescent, 12% visible
Pressure 30.01 in
Visibility 10.0 miles
Clouds Few 2400 ft
Mostly Cloudy 3000 ft
Overcast 3600 ft
Dew Point 62 °F
Humidity 66%
Rainfall 0.00 in
Snow Depth Not available.
UV 3 out of 12
Pollen Not available.
Air Quality Not available.
Flu Activity Regional
METAR PHNY 212058Z AUTO 04011KT 10SM FEW024 BKN030 OVC036 23/17 A3007 RMK AO2 SLP163 T02330167 50000

More Conditions Fewer Conditions

Pressure 30.01 in
Visibility 10.0 miles
Clouds Few 2400 ft
Mostly Cloudy 3000 ft
Overcast 3600 ft
Dew Point 62 °F
Humidity 66%
Rainfall 0.00 in
Snow Depth Not available.
UV 3 out of 12
Pollen Not available.
Air Quality Not available.
Flu Activity Regional
METAR PHNY 212058Z AUTO 04011KT 10SM FEW024 BKN030 OVC036 23/17 A3007 RMK AO2 SLP163 T02330167 50000

More Conditions Fewer Conditions

10-Day Weather Forecast

Almanac

Astronomy

Apr. 21, 2015 Rise Set
Actual Time
Civil Twilight
Nautical Twilight
Astronomical Twilight
Moon
Length of Visible Light
Length of Day
Tomorrow will be .
, % of the Moon is Illuminated

Today's Extremes

State Highs State Lows

Community

WunderPhotos

Upload Photos

1,815,549 photos uploaded!

WunderBlogs® & News

Nearby

Air Quality

  Air Quality AQ Index Pollutant
Not available.

Snow Depth

Station Depth Elevation

Earthquake Activity

City Distance Mag. Time & Date
Minimum magnitude displayed is 2.5.

Coastal Water Temperatures

Place Temperature

Stations

Nearby Weather Stations

Station Location Temp. Windchill Dew Point Humidity Wind Precip. Elev Updated Type